Tiempo atmosférico en la estación meteorológica de Garrucha, Puerto, Almería (12 m.)



Fecha
DESCASC
Temp. máxima en grados centígrados (hora)
DESCASC
Temp. mínima en grados centígrados (hora)
DESCASC
Temp. media en grados centígrados
DESCASC
Racha de viento máxima en m/sg (hora)
DESCASC
Velocidad máxima media en intervalos de 10 minutos(hora)
DESCASC
Precipitaciones diarias en mm
DESCASC
Precipitaciones de 00:00 a 06:00 en mm
DESCASC
Precipitaciones de 06:00 a 12:00 en mm
DESCASC
Precipitaciones de 12:00 a 18:00 en mm
DESCASC
Precipitaciones de 18:00 a 24:00 en mm
DESCASC
16-06-2019 24.5 (12:40) 16.1 (07:10) 20.3 8.06 (15:00) 6.39 (14:30) 0 0 0 0 0
15-06-2019 24.5 (10:40) 17.8 (06:30) 21.1 6.67 (01:50) 5.28 (01:50) 0 0 0 0 0
14-06-2019 28.7 (16:40) 19.9 (06:10) 24.3 13.61 (13:50) 10.28 (13:50) 1.6 1.2 0.4 0 0
13-06-2019 22.8 (15:40) 18.9 (00:00) 20.8 11.94 (14:00) 10 (14:00) 0 0 0 0 0
12-06-2019 21.8 (11:20) 19.7 (00:00) 20.8 12.5 (00:30) 10 (16:50) 0 0 0 0 0
11-06-2019 23.9 (18:30) 17.5 (00:00) 20.7 15 (22:30) 11.67 (22:30) 0 0 0 0 0
10-06-2019 24.2 (19:00) 19.8 (00:00) 22 9.72 (12:50) 8.61 (13:20) 0 0 0 0 0
09-06-2019 26.7 (19:10) 18.9 (00:00) 22.8 14.44 (16:40) 11.67 (14:40) 0 0 0 0 0
08-06-2019 24.4 (10:40) 17.2 (00:00) 20.8 11.11 (19:50) 9.72 (19:50) 0 0 0 0 0
07-06-2019 22.9 (15:50) 16.6 (00:00) 19.8 8.06 (18:30) 7.22 (13:40) 0 0 0 0 0
06-06-2019 25.2 (10:20) 18.5 (00:00) 21.9 11.39 (18:20) 10 (18:20) 0 0 0 0 0
05-06-2019 28.1 (14:20) 18.2 (00:00) 23.2 14.72 (17:30) 11.11 (18:00) 0 0 0 0 0
04-06-2019 23.4 (20:30) 16.5 (00:00) 19.9 15.28 (17:10) 12.22 (16:40) 0 0 0 0 0
03-06-2019 23.1 (09:30) 16.8 (00:00) 19.9 6.39 (14:50) 5.56 (14:40) 0 0 0 0 0
02-06-2019 25.4 (11:00) 15.6 (00:00) 20.5 6.11 (07:00) 5 (07:00) 0 0 0 0 0
01-06-2019 24 (19:50) 16 (00:00) 20 6.67 (16:20) 5.56 (16:20) 0 0 0 0 0
31-05-2019 22.7 (19:20) 15.7 (00:00) 19.2 7.78 (13:00) 6.67 (13:20) 0 0 0 0 0
30-05-2019 22.2 (17:30) 15.8 (00:00) 19 7.78 (16:50) 6.67 (15:20) 0 0 0 0 0
29-05-2019 22 (18:30) 17.7 (00:00) 19.9 9.72 (12:40) 8.33 (13:50) 0 0 0 0 0
28-05-2019 23.1 (10:50) 17.5 (00:00) 20.3 6.39 (14:20) 5.83 (14:30) 0 0 0 0 0
27-05-2019 21.8 (21:20) 16 (00:00) 18.9 13.89 (17:20) 11.11 (17:10) 0 0 0 0 0
26-05-2019 21.1 (10:00) 15.7 (00:00) 18.4 12.22 (17:40) 10.83 (17:10) 0 0 0 0 0
25-05-2019 22.5 (10:20) 15 (00:00) 18.8 7.78 (12:30) 6.94 (12:40) 0 0 0 0 0
24-05-2019 22.5 (13:30) 16.3 (00:00) 19.4 13.06 (21:40) 9.17 (21:40) 0 0 0 0 0
23-05-2019 25.4 (10:50) 16.2 (00:00) 20.8 7.5 (16:20) 6.67 (16:20) 0 0 0 0 0
22-05-2019 22.1 (10:50) 15.7 (00:00) 18.9 6.67 (14:50) 6.11 (14:50) 0 0 0 0 0
21-05-2019 22.4 (19:30) 17.1 (06:20) 19.8 6.11 (17:30) 5 (11:20) 0 0 0 0 0

Gráficas

Temp. máximas Temp. mínimas Temp. medias Precipitaciones Rachas de viento máximas Velocidades máximas media en intervalos de 10 minutos

Datos horarios

Fecha y hora oficial Temperatura (ºC) Velocidad del viento (km/h) Dirección del viento Racha (km/h) Dirección de racha Precipitación (mm) Presión (hPa) Tendencia (hPa) Humedad (%)
2019-06-19 23:00:00 22 14 Nordeste 24 Nordeste 0 -- -- 88
2019-06-19 22:00:00 22.2 17 Norte 25 Nordeste 0 -- -- 87
2019-06-19 21:00:00 23.3 14 Norte 25 Nordeste 0 -- -- 82
2019-06-19 20:00:00 23.6 21 Nordeste 29 Nordeste 0 -- -- 82
2019-06-19 19:00:00 23.4 22 Nordeste 30 Nordeste 0 -- -- 82
2019-06-19 18:00:00 23.3 21 Nordeste 28 Nordeste 0 -- -- 83
2019-06-19 17:00:00 24.4 21 Nordeste 27 Nordeste 0 -- -- 79
2019-06-19 16:00:00 24.3 21 Nordeste 28 Nordeste 0 -- -- 79
2019-06-19 15:00:00 24 13 Nordeste 21 Sudeste 0 -- -- 82
2019-06-19 14:00:00 21.8 17 Sudeste 24 Sudeste 0 -- -- 89
2019-06-19 13:00:00 21.9 17 Sudeste 25 Sudeste 0 -- -- 86
2019-06-19 12:00:00 21.7 20 Sudeste 24 Sudeste 0 -- -- 88
2019-06-19 11:00:00 21.5 15 Sudeste 17 Sudeste 0 -- -- 87
2019-06-19 10:00:00 21.4 8 Sudeste 13 Sudeste 0 -- -- 87
2019-06-19 09:00:00 21.9 10 Sur 14 Sur 0 -- -- 81
2019-06-19 08:00:00 20.6 3 Noroeste 9 Sudoeste 0 -- -- 73
2019-06-19 07:00:00 19.4 5 Sudoeste 17 Noroeste 0 -- -- 77
2019-06-19 06:00:00 18.9 9 Oeste 17 Oeste 0 -- -- 84
2019-06-19 05:00:00 18.7 12 Oeste 17 Noroeste 0 -- -- 87
2019-06-19 04:00:00 18.7 9 Oeste 18 Oeste 0 -- -- 85
2019-06-19 03:00:00 19.7 8 Oeste 14 Sudoeste 0 -- -- 86
2019-06-19 02:00:00 20.1 4 Oeste 9 Sudoeste 0 -- -- 87
2019-06-19 01:00:00 20.6 4 Sudoeste 9 Oeste 0 -- -- 86
2019-06-19 00:00:00 21 5 Oeste 17 Norte 0 -- -- 84
2019-06-18 23:00:00 21.3 11 Norte 28 Norte 0 -- -- 85
2019-06-18 22:00:00 21.9 11 Norte 31 Nordeste 0 -- -- 83
2019-06-18 21:00:00 22.1 22 Nordeste 29 Nordeste 0 -- -- 85
2019-06-18 20:00:00 23.1 19 Nordeste 32 Nordeste 0 -- -- 79
2019-06-18 19:00:00 22.8 24 Este 28 Este 0 -- -- 82
2019-06-18 18:00:00 22.5 21 Este 31 Sudeste 0 -- -- 79
2019-06-18 17:00:00 21.9 26 Sudeste 36 Sudeste 0 -- -- 83
2019-06-18 16:00:00 21.5 31 Sudeste 34 Sudeste 0 -- -- 86
2019-06-18 15:00:00 21.4 24 Sudeste 29 Sudeste 0 -- -- 87
2019-06-18 14:00:00 21.4 24 Sudeste 27 Sudeste 0 -- -- 86
2019-06-18 13:00:00 21.1 22 Sudeste 28 Sudeste 0 -- -- 86
2019-06-18 12:00:00 21 22 Sudeste 27 Sudeste 0 -- -- 86
2019-06-18 11:00:00 21.1 20 Sudeste 23 Sudeste 0 -- -- 86
2019-06-18 10:00:00 21.2 8 Sudeste 10 Sudeste 0 -- -- 75
2019-06-18 09:00:00 21.8 0 Calma 13 Oeste 0 -- -- 61
2019-06-18 08:00:00 19.5 7 Oeste 12 Noroeste 0 -- -- 58
2019-06-18 07:00:00 18.1 4 Noroeste 12 Oeste 0 -- -- 64
2019-06-18 06:00:00 18.1 5 Oeste 8 Sudoeste 0 -- -- 71
2019-06-18 05:00:00 20 5 Oeste 12 Oeste 0 -- -- 71
2019-06-18 04:00:00 18.9 5 Oeste 15 Oeste 0 -- -- 70
2019-06-18 03:00:00 18.9 11 Oeste 17 Noroeste 0 -- -- 66
2019-06-18 02:00:00 18.5 8 Oeste 14 Oeste 0 -- -- 90
2019-06-18 01:00:00 20 4 Oeste 5 Oeste 0 -- -- 91
2019-06-18 00:00:00 20.3 3 Sudoeste 6 Sudoeste 0 -- -- 91
2019-06-17 23:00:00 20.7 4 Este 8 Este 0 -- -- 90
2019-06-17 22:00:00 20.8 6 Este 14 Este 0 -- -- 90
2019-06-17 21:00:00 21.1 14 Este 18 Este 0 -- -- 88
2019-06-17 20:00:00 22.6 15 Este 20 Este 0 -- -- 83
2019-06-17 19:00:00 21.8 16 Sudeste 29 Sudeste 0 -- -- 83
2019-06-17 18:00:00 21.4 26 Sudeste 31 Sudeste 0 -- -- 87
2019-06-17 17:00:00 21.4 27 Sudeste 31 Sudeste 0 -- -- 88
2019-06-17 16:00:00 21.1 29 Sudeste 33 Sudeste 0 -- -- 89
2019-06-17 15:00:00 21 30 Sudeste 33 Sudeste 0 -- -- 88
2019-06-17 14:00:00 21 28 Sudeste 32 Sudeste 0 -- -- 87
2019-06-17 13:00:00 20.9 25 Sudeste 28 Sudeste 0 -- -- 87
2019-06-17 12:00:00 20.8 21 Sudeste 24 Sudeste 0 -- -- 86
2019-06-17 11:00:00 20.8 18 Sudeste 21 Sudeste 0 -- -- 85
2019-06-17 10:00:00 20.8 9 Sudeste 14 Sudeste 0 -- -- 80
2019-06-17 09:00:00 20.7 7 Sur 10 Noroeste 0 -- -- 74
2019-06-17 08:00:00 18 3 Noroeste 16 Oeste 0 -- -- 69
2019-06-17 07:00:00 17.8 9 Oeste 14 Oeste 0 -- -- 72
2019-06-17 06:00:00 18.1 6 Oeste 11 Oeste 0 -- -- 73
2019-06-17 05:00:00 18.7 10 Oeste 14 Oeste 0 -- -- 73
2019-06-17 04:00:00 18.5 9 Oeste 15 Sudoeste 0 -- -- 77
2019-06-17 03:00:00 19.3 10 Sudoeste 13 Sudoeste 0 -- -- 78
2019-06-17 02:00:00 20.6 8 Sur 11 Sur 0 -- -- 86
2019-06-17 01:00:00 20.8 5 Sudoeste 7 Sudoeste 0 -- -- 83
2019-06-17 00:00:00 21.2 0 Calma 4 Sur 0 -- -- 83
2019-06-16 23:00:00 21.4 2 Sur 3 Sur 0 -- -- 84
2019-06-16 22:00:00 21.5 2 Este 4 Nordeste 0 -- -- 83
2019-06-16 21:00:00 22.6 5 Este 9 Este 0 -- -- 80
2019-06-16 20:00:00 23.4 8 Nordeste 13 Este 0 -- -- 79
2019-06-16 19:00:00 23.3 14 Este 27 Nordeste 0 -- -- 80
2019-06-16 18:00:00 23.4 21 Nordeste 27 Nordeste 0 -- -- 79
2019-06-16 17:00:00 22.7 18 Nordeste 27 Nordeste 0 -- -- 80
2019-06-16 16:00:00 23.7 9 Nordeste 27 Nordeste 0 -- -- 79
2019-06-16 15:00:00 22.2 22 Este 29 Este 0 -- -- 83
2019-06-16 14:00:00 23.4 13 Nordeste 18 Nordeste 0 -- -- 74
2019-06-16 13:00:00 24.4 6 Nordeste 13 Nordeste 0 -- -- 58
2019-06-16 12:00:00 23.6 7 Nordeste 12 Nordeste 0 -- -- 59
2019-06-16 11:00:00 22.7 8 Nordeste 12 Nordeste 0 -- -- 68
2019-06-16 10:00:00 22 8 Norte 13 Norte 0 -- -- 72
2019-06-16 09:00:00 20 8 Noroeste 16 Noroeste 0 -- -- 57
2019-06-16 08:00:00 17.8 12 Noroeste 16 Oeste 0 -- -- 62
2019-06-16 07:00:00 16.7 13 Oeste 16 Oeste 0 -- -- 68
2019-06-16 06:00:00 17 7 Oeste 10 Noroeste 0 -- -- 71
2019-06-16 05:00:00 18.8 6 Noroeste 13 Oeste 0 -- -- 70
2019-06-16 04:00:00 18.1 12 Oeste 14 Noroeste 0 -- -- 72
2019-06-16 03:00:00 18.3 9 Noroeste 11 Noroeste 0 -- -- 74
2019-06-16 02:00:00 19.4 5 Oeste 9 Oeste 0 -- -- 81
2019-06-16 01:00:00 20.6 2 Norte 6 Nordeste 0 -- -- 81
2019-06-16 00:00:00 20.5 4 Noroeste 8 Nordeste 0 -- -- 79
2019-06-15 23:00:00 20.8 3 Nordeste 8 Nordeste 0 -- -- 78
2019-06-15 22:00:00 21.1 4 Nordeste 12 Norte 0 -- -- 77
2019-06-15 21:00:00 22.2 8 Nordeste 15 Nordeste 0 -- -- 73
2019-06-15 20:00:00 23.2 13 Nordeste 16 Nordeste 0 -- -- 70
2019-06-15 19:00:00 21.7 14 Este 18 Este 0 -- -- 75
2019-06-15 18:00:00 22.5 14 Este 18 Este 0 -- -- 70
2019-06-15 17:00:00 22.4 13 Este 18 Sudeste 0 -- -- 68
2019-06-15 16:00:00 21.6 16 Sudeste 19 Sudeste 0 -- -- 70
2019-06-15 15:00:00 22 15 Sudeste 21 Sudeste 0 -- -- 67
2019-06-15 14:00:00 22.4 17 Sudeste 21 Sudeste 0 -- -- 65
2019-06-15 13:00:00 22.3 12 Sudeste 21 Sudeste 0 -- -- 66
2019-06-15 12:00:00 21.6 12 Sudeste 15 Sudeste 0 -- -- 66
2019-06-15 11:00:00 22.3 12 Sudeste 15 Nordeste 0 -- -- 67
2019-06-15 10:00:00 23.8 10 Nordeste 15 Norte 0 -- -- 51
2019-06-15 09:00:00 21.5 7 Noroeste 11 Oeste 0 -- -- 47
2019-06-15 08:00:00 19.1 9 Sudoeste 12 Sudoeste 0 -- -- 58
2019-06-15 07:00:00 18.6 6 Sudoeste 11 Oeste 0 -- -- 56
2019-06-15 06:00:00 19.1 3 Oeste 14 Sudeste 0 -- -- 78
2019-06-15 05:00:00 19.7 13 Sudeste 18 Sur 0 -- -- 79
2019-06-15 04:00:00 21 15 Sudoeste 24 Oeste 0 -- -- 56
2019-06-15 03:00:00 22.1 16 Oeste 22 Oeste 0 -- -- 49
2019-06-15 02:00:00 22.4 18 Sudoeste 24 Sudoeste 0 -- -- 51
2019-06-15 01:00:00 23.2 9 Oeste 21 Sudoeste 0 -- -- 46
2019-06-15 00:00:00 23.8 15 Oeste 33 Oeste 0 -- -- 43
2019-06-14 23:00:00 24.3 23 Oeste 36 Oeste 0 -- -- 39
2019-06-14 22:00:00 24 19 Sudoeste 28 Sudoeste 0 -- -- 43
2019-06-14 21:00:00 24.6 15 Sur 22 Sur 0 -- -- 50
2019-06-14 20:00:00 27 7 Sudeste 31 Sudeste 0 -- -- 39
2019-06-14 19:00:00 25.9 23 Sudeste 37 Sudeste 0 -- -- 43
2019-06-14 18:00:00 27 17 Sur 36 Sur 0 -- -- 40
2019-06-14 17:00:00 26.4 12 Sudeste 41 Sudoeste 0 -- -- 46
2019-06-14 16:00:00 28 31 Sudoeste 45 Sudoeste 0 -- -- 34
2019-06-14 15:00:00 27.5 20 Sudoeste 35 Sudeste 0 -- -- 47
2019-06-14 14:00:00 24.3 35 Sudeste 49 Sudeste 0 -- -- 62
2019-06-14 13:00:00 25.1 19 Sudeste 36 Sudeste 0 -- -- 63
2019-06-14 12:00:00 23.3 21 Sudeste 27 Sudeste 0 -- -- 75
2019-06-14 11:00:00 22.6 13 Este 21 Sudeste 0 -- -- 81
2019-06-14 10:00:00 22.7 14 Oeste 24 Oeste 0 -- -- 76
2019-06-14 09:00:00 21.2 8 Norte 12 Norte 0 -- -- 86
2019-06-14 08:00:00 20.3 0 Calma 9 Sudeste 0 -- -- 89
2019-06-14 07:00:00 20 0 Calma 8 Este 0.4 -- -- 90
2019-06-14 06:00:00 20.1 11 Oeste 22 Sur 1.2 -- -- 88
2019-06-14 05:00:00 21.1 18 Sur 28 Sur 0 -- -- 84
2019-06-14 04:00:00 21.5 11 Sur 17 Sur 0 -- -- 80
2019-06-14 03:00:00 21.6 16 Sudeste 22 Sudeste 0 -- -- 79
2019-06-14 02:00:00 20.9 6 Sudoeste 16 Sur 0 -- -- 72
2019-06-14 01:00:00 21 6 Sudoeste 14 Sudoeste 0 -- -- 76
2019-06-14 00:00:00 20.8 8 Oeste 13 Oeste 0 -- -- 78
2019-06-13 23:00:00 21.1 7 Sudeste 25 Este 0 -- -- 80
2019-06-13 22:00:00 20.9 18 Este 27 Este 0 -- -- 80
2019-06-13 21:00:00 21.2 19 Este 26 Este 0 -- -- 84
2019-06-13 20:00:00 22.4 18 Nordeste 28 Nordeste 0 -- -- 79
2019-06-13 19:00:00 22.5 21 Nordeste 28 Este 0 -- -- 79
2019-06-13 18:00:00 22.6 25 Este 30 Este 0 -- -- 79
2019-06-13 17:00:00 22.8 26 Este 33 Este 0 -- -- 78
2019-06-13 16:00:00 22.6 26 Este 35 Nordeste 0 -- -- 79
2019-06-13 15:00:00 22.5 29 Nordeste 42 Nordeste 0 -- -- 78
2019-06-13 14:00:00 22.4 36 Nordeste 43 Nordeste 0 -- -- 79
2019-06-13 13:00:00 22.6 27 Nordeste 34 Nordeste 0 -- -- 78
2019-06-13 12:00:00 22.6 25 Nordeste 33 Nordeste 0 -- -- 76
2019-06-13 11:00:00 -- 21 Nordeste 30 Nordeste 0 -- -- --
2019-06-13 10:00:00 22.3 18 Nordeste 24 Nordeste 0 -- -- 77
2019-06-13 09:00:00 21.2 9 Norte 21 Norte 0 -- -- 72
2019-06-13 08:00:00 19.7 11 Noroeste 20 Noroeste 0 -- -- 78
2019-06-13 07:00:00 19.5 9 Noroeste 21 Norte 0 -- -- 79
2019-06-13 06:00:00 19.7 13 Norte 28 Norte 0 -- -- 79
2019-06-13 05:00:00 19.6 10 Noroeste 20 Norte 0 -- -- 79
2019-06-13 04:00:00 18.9 10 Noroeste 19 Norte 0 -- -- 80
2019-06-13 03:00:00 19.3 9 Noroeste 17 Norte 0 -- -- 78
2019-06-13 02:00:00 19.9 9 Norte 26 Nordeste 0 -- -- 79
2019-06-13 01:00:00 20.6 16 Nordeste 24 Nordeste 0 -- -- 82
2019-06-13 00:00:00 20.5 19 Nordeste 33 Nordeste 0 -- -- 88
2019-06-12 23:00:00 20.4 27 Nordeste 37 Nordeste 0 -- -- 88
2019-06-12 22:00:00 20.4 30 Nordeste 36 Nordeste 0 -- -- 89
2019-06-12 21:00:00 20.7 23 Nordeste 30 Nordeste 0 -- -- 86
2019-06-12 20:00:00 21.6 22 Nordeste 30 Nordeste 0 -- -- 81
2019-06-12 19:00:00 21.7 23 Nordeste 33 Nordeste 0 -- -- 78
2019-06-12 18:00:00 21.6 27 Nordeste 39 Este 0 -- -- 79
2019-06-12 17:00:00 21.1 35 Este 41 Este 0 -- -- 78
2019-06-12 16:00:00 21.2 34 Este 39 Este 0 -- -- 76
2019-06-12 15:00:00 20.8 34 Este 40 Este 0 -- -- 75
2019-06-12 14:00:00 21.1 30 Este 34 Este 0 -- -- 74
2019-06-12 13:00:00 21.6 24 Nordeste 32 Nordeste 0 -- -- 70
2019-06-12 12:00:00 21.7 17 Nordeste 26 Nordeste 0 -- -- 68
2019-06-12 11:00:00 21.4 15 Nordeste 26 Nordeste 0 -- -- 67
2019-06-12 10:00:00 21 14 Nordeste 27 Nordeste 0 -- -- 68
2019-06-12 09:00:00 20.7 17 Nordeste 30 Nordeste 0 -- -- 68
2019-06-12 08:00:00 20.3 19 Nordeste 30 Nordeste 0 -- -- 71
2019-06-12 07:00:00 19.8 21 Nordeste 33 Nordeste 0 -- -- 73
2019-06-12 06:00:00 19.9 20 Nordeste 33 Nordeste 0 -- -- 73
2019-06-12 05:00:00 19.8 26 Nordeste 39 Nordeste 0 -- -- 75
2019-06-12 04:00:00 19.8 31 Nordeste 41 Este 0 -- -- 81
2019-06-12 03:00:00 20 29 Nordeste 39 Nordeste 0 -- -- 82
2019-06-12 02:00:00 19.9 30 Nordeste 40 Nordeste 0 -- -- 81
2019-06-12 01:00:00 20.1 31 Nordeste 45 Nordeste 0 -- -- 81
2019-06-12 00:00:00 20.2 34 Nordeste 51 Nordeste 0 -- -- 84
2019-06-11 23:00:00 20.7 40 Nordeste 54 Nordeste 0 -- -- 85
2019-06-11 22:00:00 20.7 25 Nordeste 33 Nordeste 0 -- -- 85
2019-06-11 21:00:00 21 19 Nordeste 33 Nordeste 0 -- -- 84
2019-06-11 20:00:00 21.4 25 Nordeste 36 Nordeste 0 -- -- 83
2019-06-11 19:00:00 22.8 23 Nordeste 32 Norte 0 -- -- 77
2019-06-11 18:00:00 22.6 16 Sudeste 44 Sudeste 0 -- -- 76
2019-06-11 17:00:00 22.7 35 Sudeste 40 Sudeste 0 -- -- 75
2019-06-11 16:00:00 20.9 35 Sudeste 48 Sudeste 0 -- -- 83
2019-06-11 15:00:00 20.6 41 Sur 46 Sur 0 -- -- 86
2019-06-11 14:00:00 21 32 Sudeste 36 Sudeste 0 -- -- 83
2019-06-11 13:00:00 21.2 25 Sudeste 30 Sudeste 0 -- -- 83
2019-06-11 12:00:00 20.7 26 Sudeste 28 Sudeste 0 -- -- 86
2019-06-11 11:00:00 21 17 Sudeste 19 Sudeste 0 -- -- 85
2019-06-11 10:00:00 20.8 13 Sur 15 Sudeste 0 -- -- 75
2019-06-11 09:00:00 21 2 Sudoeste 9 Oeste 0 -- -- 70
2019-06-11 08:00:00 18.2 4 Noroeste 12 Oeste 0 -- -- 73
2019-06-11 07:00:00 17.8 6 Noroeste 12 Oeste 0 -- -- 75
2019-06-11 06:00:00 17.7 6 Oeste 10 Sudoeste 0 -- -- 75
2019-06-11 05:00:00 18.1 6 Oeste 9 Sudoeste 0 -- -- 79
2019-06-11 04:00:00 18.4 6 Oeste 11 Oeste 0 -- -- 78
2019-06-11 03:00:00 20.6 7 Sudeste 14 Sudeste 0 -- -- 83
2019-06-11 02:00:00 20.9 13 Sur 18 Sur 0 -- -- 80
2019-06-11 01:00:00 20.4 7 Sudoeste 12 Sudoeste 0 -- -- 72
2019-06-11 00:00:00 20.7 2 Oeste 12 Nordeste 0 -- -- 89
2019-06-10 23:00:00 21.1 9 Norte 23 Norte 0 -- -- 89
2019-06-10 22:00:00 21.2 17 Norte 23 Nordeste 0 -- -- 84
2019-06-10 21:00:00 22.1 10 Norte 18 Nordeste 0 -- -- 84
2019-06-10 20:00:00 23.1 14 Nordeste 19 Nordeste 0 -- -- 82
2019-06-10 19:00:00 24.2 15 Nordeste 22 Este 0 -- -- 80
2019-06-10 18:00:00 22.7 19 Este 27 Sudeste 0 -- -- 81
2019-06-10 17:00:00 23.5 22 Sudeste 31 Sudeste 0 -- -- 59
2019-06-10 16:00:00 22.2 27 Sudeste 35 Sur 0 -- -- 77
2019-06-10 15:00:00 22.5 30 Sur 35 Sur 0 -- -- 68
2019-06-10 14:00:00 22.3 31 Sur 35 Sur 0 -- -- 69
2019-06-10 13:00:00 21.1 31 Sudeste 35 Sur 0 -- -- 85
2019-06-10 12:00:00 21.2 27 Sur 31 Sudeste 0 -- -- 86
2019-06-10 11:00:00 21.9 14 Sudeste 19 Sudeste 0 -- -- 75
2019-06-10 10:00:00 21 14 Sudeste 21 Sudeste 0 -- -- 75
2019-06-10 09:00:00 22.7 5 Sudoeste 10 Oeste 0 -- -- 53
2019-06-10 08:00:00 22.1 9 Oeste 22 Noroeste 0 -- -- 48
2019-06-10 07:00:00 23.5 17 Noroeste 22 Noroeste 0 -- -- 38
2019-06-10 06:00:00 23.1 13 Noroeste 17 Noroeste 0 -- -- 42
2019-06-10 05:00:00 20.6 4 Norte 10 Noroeste 0 -- -- 66
2019-06-10 04:00:00 20.7 0 Calma 7 Sur 0 -- -- 83
2019-06-10 03:00:00 19.9 4 Sur 7 Sur 0 -- -- 79
2019-06-10 02:00:00 20.4 3 Oeste 8 Oeste 0 -- -- 81
2019-06-10 01:00:00 20.8 3 Noroeste 13 Nordeste 0 -- -- 87
2019-06-10 00:00:00 21.2 10 Norte 17 Nordeste 0 -- -- 87
2019-06-09 23:00:00 22 11 Nordeste 19 Norte 0 -- -- 83
2019-06-09 22:00:00 23 4 Oeste 22 Sur 0 -- -- 70
2019-06-09 21:00:00 22.7 19 Sudeste 31 Sur 0 -- -- 75
2019-06-09 20:00:00 23.5 27 Sur 36 Sur 0 -- -- 71
2019-06-09 19:00:00 25.2 16 Sur 40 Sur 0 -- -- 60
2019-06-09 18:00:00 24 35 Sur 48 Sur 0 -- -- 69
2019-06-09 17:00:00 22 39 Sudeste 52 Sudeste 0 -- -- 85
2019-06-09 16:00:00 21.6 41 Sudeste 48 Sudeste 0 -- -- 86
2019-06-09 15:00:00 21.5 41 Sur 47 Sur 0 -- -- 85
2019-06-09 14:00:00 20.9 39 Sudeste 45 Sur 0 -- -- 85
2019-06-09 13:00:00 20.9 32 Sudeste 37 Sudeste 0 -- -- 85
2019-06-09 12:00:00 20.9 27 Sudeste 31 Sudeste 0 -- -- 81
2019-06-09 11:00:00 21.8 13 Sudeste 15 Sudeste 0 -- -- 76
2019-06-09 10:00:00 22 7 Sudeste 9 Sudeste 0 -- -- 66
2019-06-09 09:00:00 20.7 4 Sudoeste 10 Sudoeste 0 -- -- 66
2019-06-09 08:00:00 19.7 5 Sudoeste 7 Oeste 0 -- -- 75
2019-06-09 07:00:00 19.3 6 Sudoeste 14 Sudoeste 0 -- -- 73
2019-06-09 06:00:00 19.4 6 Oeste 14 Oeste 0 -- -- 76
2019-06-09 05:00:00 19.3 10 Oeste 16 Oeste 0 -- -- 80
2019-06-09 04:00:00 19.3 10 Oeste 15 Oeste 0 -- -- 84
2019-06-09 03:00:00 19.5 5 Noroeste 12 Oeste 0 -- -- 82
2019-06-09 02:00:00 20.1 5 Oeste 12 Oeste 0 -- -- 82
2019-06-09 01:00:00 20.3 8 Oeste 14 Norte 0 -- -- 84
2019-06-09 00:00:00 21.2 9 Norte 20 Nordeste 0 -- -- 81
2019-06-08 23:00:00 21 10 Nordeste 19 Este 0 -- -- 84
2019-06-08 22:00:00 21.1 10 Este 23 Nordeste 0 -- -- 87
2019-06-08 21:00:00 21.5 15 Nordeste 33 Nordeste 0 -- -- 86
2019-06-08 20:00:00 22.1 31 Nordeste 40 Este 0 -- -- 84
2019-06-08 19:00:00 22.5 25 Este 32 Este 0 -- -- 83
2019-06-08 18:00:00 22.4 24 Este 32 Este 0 -- -- 83
2019-06-08 17:00:00 22.1 24 Este 31 Este 0 -- -- 85
2019-06-08 16:00:00 22.8 24 Este 40 Este 0 -- -- 82
2019-06-08 15:00:00 23.2 30 Nordeste 39 Nordeste 0 -- -- 77
2019-06-08 14:00:00 23.2 28 Nordeste 38 Nordeste 0 -- -- 78
2019-06-08 13:00:00 23.6 24 Nordeste 30 Nordeste 0 -- -- 74
2019-06-08 12:00:00 23.6 15 Nordeste 24 Nordeste 0 -- -- 72
2019-06-08 11:00:00 23.8 13 Nordeste 23 Nordeste 0 -- -- 61
2019-06-08 10:00:00 23.6 6 Norte 14 Noroeste 0 -- -- 53
2019-06-08 09:00:00 21.6 9 Noroeste 18 Noroeste 0 -- -- 52
2019-06-08 08:00:00 18.6 12 Noroeste 17 Noroeste 0 -- -- 72
2019-06-08 07:00:00 17.6 9 Noroeste 17 Oeste 0 -- -- 81
2019-06-08 06:00:00 17.6 13 Noroeste 17 Oeste 0 -- -- 84
2019-06-08 05:00:00 18.2 10 Oeste 18 Oeste 0 -- -- 91
2019-06-08 04:00:00 18.6 12 Oeste 15 Noroeste 0 -- -- 91
2019-06-08 03:00:00 18.9 10 Noroeste 14 Oeste 0 -- -- 91
2019-06-08 02:00:00 19.6 8 Noroeste 12 Noroeste 0 -- -- 91
2019-06-08 01:00:00 20.7 8 Nordeste 15 Nordeste 0 -- -- 91
2019-06-08 00:00:00 20.9 10 Nordeste 18 Nordeste 0 -- -- 90
2019-06-07 23:00:00 21.1 13 Nordeste 18 Nordeste 0 -- -- 89
2019-06-07 22:00:00 21.2 4 Nordeste 15 Nordeste 0 -- -- 88
2019-06-07 21:00:00 22 12 Nordeste 22 Nordeste 0 -- -- 84
2019-06-07 20:00:00 22.7 19 Nordeste 27 Nordeste 0 -- -- 82
2019-06-07 19:00:00 22.5 23 Nordeste 29 Nordeste 0 -- -- 80
2019-06-07 18:00:00 22.7 22 Nordeste 27 Nordeste 0 -- -- 79
2019-06-07 17:00:00 22.8 21 Nordeste 26 Nordeste 0 -- -- 77
2019-06-07 16:00:00 22.8 22 Nordeste 25 Nordeste 0 -- -- 76
2019-06-07 15:00:00 22.3 21 Sudeste 27 Sudeste 0 -- -- 64
2019-06-07 14:00:00 21.1 25 Sudeste 28 Sudeste 0 -- -- 72
2019-06-07 13:00:00 20.7 24 Sudeste 27 Sur 0 -- -- 81
2019-06-07 12:00:00 20.7 18 Sudeste 22 Sudeste 0 -- -- 79
2019-06-07 11:00:00 20.3 16 Sudeste 18 Sudeste 0 -- -- 77
2019-06-07 10:00:00 19.8 12 Sudeste 21 Sur 0 -- -- 75
2019-06-07 09:00:00 19.7 14 Sur 18 Sur 0 -- -- 74
2019-06-07 08:00:00 18.2 4 Sudoeste 16 Oeste 0 -- -- 64
2019-06-07 07:00:00 17.2 11 Oeste 18 Oeste 0 -- -- 68
2019-06-07 06:00:00 17 10 Oeste 17 Sudoeste 0 -- -- 70
2019-06-07 05:00:00 16.6 9 Oeste 22 Oeste 0 -- -- 74
2019-06-07 04:00:00 17.6 11 Sudoeste 19 Oeste 0 -- -- 72
2019-06-07 03:00:00 17.9 12 Oeste 21 Sudoeste 0 -- -- 71
2019-06-07 02:00:00 19.1 7 Oeste 12 Oeste 0 -- -- 72
2019-06-07 01:00:00 19.7 7 Oeste 12 Oeste 0 -- -- 78
2019-06-07 00:00:00 19.8 9 Oeste 19 Oeste 0 -- -- 76
2019-06-06 23:00:00 20.2 13 Oeste 19 Noroeste 0 -- -- 75
2019-06-06 22:00:00 22.2 5 Nordeste 27 Nordeste 0 -- -- 64
2019-06-06 21:00:00 22.1 17 Nordeste 30 Este 0 -- -- 69
2019-06-06 20:00:00 23.4 15 Nordeste 37 Sudeste 0 -- -- 67
2019-06-06 19:00:00 23 32 Sudeste 41 Sur 0 -- -- 59
2019-06-06 18:00:00 22.6 26 Sudeste 35 Sudeste 0 -- -- 64
2019-06-06 17:00:00 21.5 22 Sudeste 26 Sudeste 0 -- -- 70
2019-06-06 16:00:00 21.3 19 Sudeste 22 Sur 0 -- -- 76
2019-06-06 15:00:00 21.1 20 Sur 23 Sudeste 0 -- -- 80
2019-06-06 14:00:00 22.1 14 Sudeste 16 Sudeste 0 -- -- 66
2019-06-06 13:00:00 22.6 14 Este 18 Este 0 -- -- 65
2019-06-06 12:00:00 22.3 13 Este 15 Este 0 -- -- 67
2019-06-06 11:00:00 23.5 6 Este 8 Nordeste 0 -- -- 53
2019-06-06 10:00:00 23.2 7 Norte 13 Noroeste 0 -- -- 45
2019-06-06 09:00:00 21.2 10 Oeste 17 Oeste 0 -- -- 34
2019-06-06 08:00:00 19.7 8 Oeste 12 Oeste 0 -- -- 37
2019-06-06 07:00:00 18.5 7 Noroeste 16 Oeste 0 -- -- 39
2019-06-06 06:00:00 18.9 12 Noroeste 16 Noroeste 0 -- -- 37
2019-06-06 05:00:00 19.7 10 Noroeste 14 Noroeste 0 -- -- 35
2019-06-06 04:00:00 20.8 6 Noroeste 9 Noroeste 0 -- -- 33
2019-06-06 03:00:00 21.3 3 Este 12 Oeste 0 -- -- 33
2019-06-06 02:00:00 22.2 6 Noroeste 15 Oeste 0 -- -- 29
2019-06-06 01:00:00 23.4 11 Noroeste 27 Oeste 0 -- -- 30
2019-06-06 00:00:00 24.5 10 Noroeste 18 Oeste 0 -- -- 27
2019-06-05 23:00:00 25.1 9 Oeste 23 Oeste 0 -- -- 25
2019-06-05 22:00:00 25.5 14 Sudoeste 24 Oeste 0 -- -- 34
2019-06-05 21:00:00 26.4 16 Sudoeste 29 Sudoeste 0 -- -- 31
2019-06-05 20:00:00 25.1 21 Sur 32 Sur 0 -- -- 40
2019-06-05 19:00:00 24.4 29 Sur 45 Sur 0 -- -- 51
2019-06-05 18:00:00 22.9 40 Sudeste 53 Sudeste 0 -- -- 65
2019-06-05 17:00:00 22.5 33 Sur 44 Sur 0 -- -- 65
2019-06-05 16:00:00 22.7 22 Sur 43 Noroeste 0 -- -- 62
2019-06-05 15:00:00 28 29 Noroeste 48 Noroeste 0 -- -- 20
2019-06-05 14:00:00 27.8 27 Noroeste 44 Noroeste 0 -- -- 21
2019-06-05 13:00:00 24.2 14 Sur 31 Sur 0 -- -- 57
2019-06-05 12:00:00 24.2 14 Sur 27 Sur 0 -- -- 60
2019-06-05 11:00:00 25.9 19 Noroeste 37 Noroeste 0 -- -- 38
2019-06-05 10:00:00 22.3 7 Sur 19 Sudeste 0 -- -- 72
2019-06-05 09:00:00 21 8 Sur 15 Sur 0 -- -- 85
2019-06-05 08:00:00 20.5 11 Sur 14 Sur 0 -- -- 86
2019-06-05 07:00:00 18.8 6 Sur 9 Oeste 0 -- -- 86
2019-06-05 06:00:00 18.6 6 Oeste 10 Oeste 0 -- -- 84
2019-06-05 05:00:00 18.8 4 Noroeste 10 Oeste 0 -- -- 83
2019-06-05 04:00:00 18.5 9 Noroeste 15 Noroeste 0 -- -- 84
2019-06-05 03:00:00 19.2 3 Noroeste 10 Sudeste 0 -- -- 85
2019-06-05 02:00:00 20.1 7 Sur 9 Sudeste 0 -- -- 85
2019-06-05 01:00:00 20 4 Norte 11 Noroeste 0 -- -- 82
2019-06-05 00:00:00 20.5 3 Oeste 8 Norte 0 -- -- 83
2019-06-04 23:00:00 20.8 8 Norte 24 Norte 0 -- -- 85
2019-06-04 22:00:00 21.1 11 Norte 21 Noroeste 0 -- -- 86
2019-06-04 21:00:00 22.5 5 Oeste 39 Sur 0 -- -- 78
2019-06-04 20:00:00 21.7 35 Sur 48 Sur 0 -- -- 83
2019-06-04 19:00:00 22.2 32 Sur 53 Sudeste 0 -- -- 77
2019-06-04 18:00:00 22.7 32 Sudeste 55 Sudeste 0 -- -- 72
2019-06-04 17:00:00 21.5 41 Sudeste 54 Sudeste 0 -- -- 82
2019-06-04 16:00:00 21.3 39 Sudeste 46 Sudeste 0 -- -- 84
2019-06-04 15:00:00 21.2 34 Sudeste 42 Sudeste 0 -- -- 86
2019-06-04 14:00:00 21.3 25 Sudeste 31 Sudeste 0 -- -- 83
2019-06-04 13:00:00 20.9 24 Sudeste 28 Sudeste 0 -- -- 87
2019-06-04 12:00:00 21.4 14 Sudeste 17 Este 0 -- -- 78
2019-06-04 11:00:00 21.3 11 Este 13 Este 0 -- -- 76
2019-06-04 10:00:00 22.6 3 Nordeste 8 Nordeste 0 -- -- 63
2019-06-04 09:00:00 19.5 5 Noroeste 11 Oeste 0 -- -- 56
2019-06-04 08:00:00 18.8 3 Noroeste 8 Oeste 0 -- -- 60
2019-06-04 07:00:00 16.5 5 Oeste 9 Oeste 0 -- -- 68
2019-06-04 06:00:00 17.5 9 Oeste 12 Oeste 0 -- -- 61
2019-06-04 05:00:00 17.1 6 Oeste 12 Noroeste 0 -- -- 70
2019-06-04 04:00:00 18.2 8 Noroeste 11 Oeste 0 -- -- 65
2019-06-04 03:00:00 18.1 4 Oeste 8 Noroeste 0 -- -- 74
2019-06-04 02:00:00 19.5 2 Oeste 12 Sudoeste 0 -- -- 76
2019-06-04 01:00:00 19.5 3 Oeste 8 Oeste 0 -- -- 83
2019-06-04 00:00:00 19.4 3 Oeste 6 Oeste 0 -- -- 82
2019-06-03 23:00:00 20.4 0 Calma 7 Este 0 -- -- 85
2019-06-03 22:00:00 20.8 7 Este 15 Sudeste 0 -- -- 83
2019-06-03 21:00:00 21.1 14 Sudeste 20 Sudeste 0 -- -- 81
2019-06-03 20:00:00 21.6 18 Sudeste 20 Sudeste 0 -- -- 77
2019-06-03 19:00:00 21.9 13 Sudeste 17 Sudeste 0 -- -- 72
2019-06-03 18:00:00 21.4 15 Sudeste 21 Sudeste 0 -- -- 77
2019-06-03 17:00:00 21 19 Sudeste 21 Sudeste 0 -- -- 75
2019-06-03 16:00:00 20.8 18 Sudeste 22 Sudeste 0 -- -- 84
2019-06-03 15:00:00 20.7 19 Sudeste 23 Sudeste 0 -- -- 84
2019-06-03 14:00:00 20.6 19 Sudeste 22 Sudeste 0 -- -- 85
2019-06-03 13:00:00 21.2 16 Sudeste 18 Sudeste 0 -- -- 75
2019-06-03 12:00:00 21.1 15 Sudeste 17 Sudeste 0 -- -- 67
2019-06-03 11:00:00 21 9 Sudeste 11 Sudeste 0 -- -- 65
2019-06-03 10:00:00 22.3 6 Este 7 Este 0 -- -- 52
2019-06-03 09:00:00 20.4 3 Oeste 10 Sudoeste 0 -- -- 45
2019-06-03 08:00:00 17.6 8 Oeste 12 Oeste 0 -- -- 51
2019-06-03 07:00:00 17.7 8 Oeste 13 Oeste 0 -- -- 46
2019-06-03 06:00:00 17.1 10 Oeste 15 Oeste 0 -- -- 51
2019-06-03 05:00:00 17.3 4 Oeste 18 Oeste 0 -- -- 48
2019-06-03 04:00:00 18.1 8 Oeste 15 Oeste 0 -- -- 51
2019-06-03 03:00:00 18.5 8 Oeste 14 Oeste 0 -- -- 49
2019-06-03 02:00:00 18.6 7 Oeste 13 Oeste 0 -- -- 54
2019-06-03 01:00:00 18.9 7 Oeste 9 Oeste 0 -- -- 64
2019-06-03 00:00:00 19.8 2 Oeste 4 Oeste 0 -- -- 77
2019-06-02 23:00:00 20.6 3 Nordeste 4 Nordeste 0 -- -- 78
2019-06-02 22:00:00 20.7 3 Nordeste 4 Nordeste 0 -- -- 78
2019-06-02 21:00:00 22 2 Este 7 Este 0 -- -- 75
2019-06-02 20:00:00 22.2 6 Este 10 Este 0 -- -- 75
2019-06-02 19:00:00 22 7 Este 13 Este 0 -- -- 75
2019-06-02 18:00:00 22.5 8 Sudeste 17 Sudeste 0 -- -- 69
2019-06-02 17:00:00 22.2 15 Sudeste 17 Sudeste 0 -- -- 66
2019-06-02 16:00:00 22.4 14 Sudeste 17 Sudeste 0 -- -- 62
2019-06-02 15:00:00 22.9 14 Sudeste 21 Este 0 -- -- 51
2019-06-02 14:00:00 22.7 18 Este 21 Este 0 -- -- 52
2019-06-02 13:00:00 23.6 14 Este 16 Este 0 -- -- 57
2019-06-02 12:00:00 23.3 12 Este 14 Este 0 -- -- 55
2019-06-02 11:00:00 25.4 5 Nordeste 11 Norte 0 -- -- 37
2019-06-02 10:00:00 22.7 8 Noroeste 14 Noroeste 0 -- -- 42
2019-06-02 09:00:00 19.2 12 Noroeste 18 Noroeste 0 -- -- 51
2019-06-02 08:00:00 16.9 14 Noroeste 22 Oeste 0 -- -- 55
2019-06-02 07:00:00 16 18 Noroeste 22 Noroeste 0 -- -- 59
2019-06-02 06:00:00 16.3 11 Noroeste 18 Oeste 0 -- -- 59
2019-06-02 05:00:00 16.2 17 Noroeste 21 Oeste 0 -- -- 61
2019-06-02 04:00:00 17.4 15 Oeste 20 Oeste 0 -- -- 57
2019-06-02 03:00:00 18 13 Noroeste 17 Noroeste 0 -- -- 56
2019-06-02 02:00:00 17.8 10 Noroeste 19 Oeste 0 -- -- 60
2019-06-02 01:00:00 18.5 6 Oeste 12 Oeste 0 -- -- 66
2019-06-02 00:00:00 20.4 8 Oeste 11 Noroeste 0 -- -- 62
2019-06-01 23:00:00 20.5 6 Noroeste 14 Nordeste 0 -- -- 69
2019-06-01 22:00:00 20.9 8 Norte 13 Norte 0 -- -- 76
2019-06-01 21:00:00 22.2 6 Nordeste 13 Nordeste 0 -- -- 70
2019-06-01 20:00:00 23.9 7 Nordeste 19 Este 0 -- -- 65
2019-06-01 19:00:00 21.7 17 Este 23 Este 0 -- -- 72
2019-06-01 18:00:00 22 15 Este 22 Este 0 -- -- 64
2019-06-01 17:00:00 22.6 18 Este 24 Este 0 -- -- 62
2019-06-01 16:00:00 22.9 19 Este 22 Este 0 -- -- 63
2019-06-01 15:00:00 23.3 16 Nordeste 23 Este 0 -- -- 65
2019-06-01 14:00:00 23.3 18 Nordeste 23 Este 0 -- -- 57
2019-06-01 13:00:00 23.6 15 Nordeste 22 Nordeste 0 -- -- 53
2019-06-01 12:00:00 23 16 Nordeste 21 Nordeste 0 -- -- 51
2019-06-01 11:00:00 23.2 12 Nordeste 16 Nordeste 0 -- -- 49
2019-06-01 10:00:00 22.5 8 Norte 18 Oeste 0 -- -- 45
2019-06-01 09:00:00 19.3 10 Noroeste 18 Oeste 0 -- -- 60
2019-06-01 08:00:00 16.5 15 Noroeste 21 Noroeste 0 -- -- 68
2019-06-01 07:00:00 16.5 16 Noroeste 23 Noroeste 0 -- -- 68
2019-06-01 06:00:00 16.7 13 Noroeste 21 Noroeste 0 -- -- 68
2019-06-01 05:00:00 17.1 11 Noroeste 17 Noroeste 0 -- -- 71
2019-06-01 04:00:00 17.5 9 Noroeste 16 Noroeste 0 -- -- 74
2019-06-01 03:00:00 17.4 13 Noroeste 17 Noroeste 0 -- -- 79
2019-06-01 02:00:00 18.1 11 Noroeste 13 Oeste 0 -- -- 79
2019-06-01 01:00:00 18.8 9 Oeste 12 Oeste 0 -- -- 78
2019-06-01 00:00:00 18.7 9 Noroeste 13 Norte 0 -- -- 79
2019-05-31 23:00:00 20.2 8 Nordeste 14 Nordeste 0 -- -- 78
2019-05-31 22:00:00 20.3 9 Nordeste 19 Nordeste 0 -- -- 78
2019-05-31 21:00:00 20.9 12 Nordeste 18 Nordeste 0 -- -- 75
2019-05-31 20:00:00 22.1 13 Nordeste 22 Nordeste 0 -- -- 72
2019-05-31 19:00:00 22.2 16 Nordeste 23 Nordeste 0 -- -- 72
2019-05-31 18:00:00 22.1 18 Nordeste 24 Nordeste 0 -- -- 71
2019-05-31 17:00:00 22.2 21 Nordeste 26 Nordeste 0 -- -- 69
2019-05-31 16:00:00 21.8 19 Este 25 Nordeste 0 -- -- 75
2019-05-31 15:00:00 20.7 23 Este 27 Este 0 -- -- 76
2019-05-31 14:00:00 21 20 Este 27 Este 0 -- -- 76
2019-05-31 13:00:00 21.7 23 Nordeste 28 Nordeste 0 -- -- 75
2019-05-31 12:00:00 21.7 15 Nordeste 25 Nordeste 0 -- -- 73
2019-05-31 11:00:00 21.5 18 Nordeste 24 Norte 0 -- -- 66
2019-05-31 10:00:00 21 12 Nordeste 17 Norte 0 -- -- 66
2019-05-31 09:00:00 18.6 10 Noroeste 18 Noroeste 0 -- -- 70
2019-05-31 08:00:00 16.3 13 Noroeste 16 Noroeste 0 -- -- 78
2019-05-31 07:00:00 15.7 11 Noroeste 16 Noroeste 0 -- -- 81
2019-05-31 06:00:00 16 13 Noroeste 17 Oeste 0 -- -- 80
2019-05-31 05:00:00 16.1 11 Noroeste 18 Noroeste 0 -- -- 83
2019-05-31 04:00:00 16.4 13 Noroeste 17 Noroeste 0 -- -- 81
2019-05-31 03:00:00 16.6 9 Noroeste 13 Oeste 0 -- -- 82
2019-05-31 02:00:00 17.1 10 Oeste 13 Oeste 0 -- -- 81
2019-05-31 01:00:00 18.5 7 Noroeste 11 Noroeste 0 -- -- 77
2019-05-31 00:00:00 19.1 7 Norte 19 Norte 0 -- -- 76
2019-05-30 23:00:00 19.7 12 Nordeste 21 Nordeste 0 -- -- 77
2019-05-30 22:00:00 19.9 15 Nordeste 22 Nordeste 0 -- -- 77
2019-05-30 21:00:00 20.6 15 Nordeste 23 Nordeste 0 -- -- 73
2019-05-30 20:00:00 21.8 17 Nordeste 24 Este 0 -- -- 69
2019-05-30 19:00:00 21.9 19 Nordeste 28 Nordeste 0 -- -- 70
2019-05-30 18:00:00 21.6 21 Nordeste 27 Nordeste 0 -- -- 71
2019-05-30 17:00:00 21.7 24 Nordeste 28 Este 0 -- -- 70
2019-05-30 16:00:00 21.7 18 Este 27 Este 0 -- -- 68
2019-05-30 15:00:00 21.8 21 Este 25 Este 0 -- -- 64
2019-05-30 14:00:00 22 19 Nordeste 24 Nordeste 0 -- -- 66
2019-05-30 13:00:00 21.8 15 Nordeste 23 Nordeste 0 -- -- 67
2019-05-30 12:00:00 21.2 16 Nordeste 23 Nordeste 0 -- -- 67
2019-05-30 11:00:00 20.6 17 Nordeste 23 Nordeste 0 -- -- 73
2019-05-30 10:00:00 20.3 13 Nordeste 21 Norte 0 -- -- 73
2019-05-30 09:00:00 19.1 6 Noroeste 17 Noroeste 0 -- -- 62
2019-05-30 08:00:00 16.5 13 Noroeste 20 Noroeste 0 -- -- 68
2019-05-30 07:00:00 15.8 12 Noroeste 17 Noroeste 0 -- -- 70
2019-05-30 06:00:00 15.8 10 Noroeste 18 Noroeste 0 -- -- 72
2019-05-30 05:00:00 16.6 12 Noroeste 17 Noroeste 0 -- -- 71
2019-05-30 04:00:00 16.6 9 Noroeste 16 Noroeste 0 -- -- 69
2019-05-30 03:00:00 17.9 8 Noroeste 19 Norte 0 -- -- 64
2019-05-30 02:00:00 19.5 18 Norte 27 Nordeste 0 -- -- 76
2019-05-30 01:00:00 19.6 18 Nordeste 26 Nordeste 0 -- -- 79
2019-05-30 00:00:00 19.8 20 Nordeste 26 Nordeste 0 -- -- 76
2019-05-29 23:00:00 20.2 17 Nordeste 23 Nordeste 0 -- -- 72
2019-05-29 22:00:00 20.3 14 Nordeste 22 Nordeste 0 -- -- 64
2019-05-29 21:00:00 20.8 16 Nordeste 22 Nordeste 0 -- -- 66
2019-05-29 20:00:00 21.7 18 Nordeste 28 Nordeste 0 -- -- 66
2019-05-29 19:00:00 21.7 24 Nordeste 29 Este 0 -- -- 63
2019-05-29 18:00:00 21.5 24 Este 33 Este 0 -- -- 68
2019-05-29 17:00:00 21.3 26 Este 33 Este 0 -- -- 69
2019-05-29 16:00:00 21.2 28 Este 33 Nordeste 0 -- -- 68
2019-05-29 15:00:00 21.3 26 Este 33 Nordeste 0 -- -- 70
2019-05-29 14:00:00 21.7 30 Nordeste 35 Nordeste 0 -- -- 61
2019-05-29 13:00:00 21.5 28 Nordeste 35 Nordeste 0 -- -- 67
2019-05-29 12:00:00 21.7 26 Nordeste 33 Nordeste 0 -- -- 71
2019-05-29 11:00:00 21.5 24 Nordeste 33 Nordeste 0 -- -- 69
2019-05-29 10:00:00 21.4 20 Nordeste 29 Nordeste 0 -- -- 68
2019-05-29 09:00:00 21.4 18 Nordeste 24 Nordeste 0 -- -- 66
2019-05-29 08:00:00 18.5 0 Calma 14 Noroeste 0 -- -- 82
2019-05-29 07:00:00 17.7 9 Noroeste 12 Noroeste 0 -- -- 86
2019-05-29 06:00:00 18.6 7 Noroeste 17 Noroeste 0 -- -- 83
2019-05-29 05:00:00 19.3 10 Norte 17 Norte 0 -- -- 81
2019-05-29 04:00:00 19.7 8 Norte 21 Norte 0 -- -- 82
2019-05-29 03:00:00 20.2 17 Nordeste 29 Nordeste 0 -- -- 86
2019-05-29 02:00:00 20.4 22 Nordeste 33 Norte 0 -- -- 87
2019-05-29 01:00:00 20.4 22 Nordeste 31 Nordeste 0 -- -- 89
2019-05-29 00:00:00 20.5 13 Nordeste 23 Nordeste 0 -- -- 92
2019-05-28 23:00:00 20.7 15 Nordeste 22 Nordeste 0 -- -- 92
2019-05-28 22:00:00 20.8 12 Nordeste 16 Nordeste 0 -- -- 91
2019-05-28 21:00:00 21.9 8 Nordeste 12 Nordeste 0 -- -- 86
2019-05-28 20:00:00 22.1 7 Este 11 Este 0 -- -- 85
2019-05-28 19:00:00 21.7 7 Este 13 Este 0 -- -- 86
2019-05-28 18:00:00 21.5 13 Este 17 Este 0 -- -- 86
2019-05-28 17:00:00 21.2 16 Este 21 Este 0 -- -- 87
2019-05-28 16:00:00 21.8 16 Este 22 Este 0 -- -- 87
2019-05-28 15:00:00 21.7 18 Este 23 Sudeste 0 -- -- 88
2019-05-28 14:00:00 21.5 13 Sudeste 16 Sudeste 0 -- -- 85
2019-05-28 13:00:00 21.3 14 Sudeste 16 Este 0 -- -- 85
2019-05-28 12:00:00 22.8 14 Este 19 Este 0 -- -- 76
2019-05-28 11:00:00 22.7 10 Nordeste 13 Nordeste 0 -- -- 74
2019-05-28 10:00:00 22.3 5 Norte 12 Norte 0 -- -- 77
2019-05-28 09:00:00 20.3 8 Noroeste 14 Noroeste 0 -- -- 79
2019-05-28 08:00:00 18.7 10 Noroeste 17 Oeste 0 -- -- 83
2019-05-28 07:00:00 18.8 8 Noroeste 17 Noroeste 0 -- -- 82
2019-05-28 06:00:00 18.1 11 Noroeste 15 Oeste 0 -- -- 83
2019-05-28 05:00:00 18.2 8 Noroeste 14 Oeste 0 -- -- 87
2019-05-28 04:00:00 17.5 11 Noroeste 15 Noroeste 0 -- -- 89
2019-05-28 03:00:00 18.8 3 Noroeste 6 Noroeste 0 -- -- 89
2019-05-28 02:00:00 19.7 0 Calma 4 Sudoeste 0 -- -- 89
2019-05-28 01:00:00 19.7 3 Sur 5 Oeste 0 -- -- 88
2019-05-28 00:00:00 20 2 Noroeste 8 Norte 0 -- -- 88
2019-05-27 23:00:00 20.2 6 Norte 18 Norte 0 -- -- 89
2019-05-27 22:00:00 21.1 3 Sur 32 Sur 0 -- -- 83
2019-05-27 21:00:00 20.8 27 Sur 40 Sur 0 -- -- 87
2019-05-27 20:00:00 20.6 32 Sudeste 47 Sudeste 0 -- -- 88
2019-05-27 19:00:00 20.7 34 Sudeste 46 Sur 0 -- -- 85
2019-05-27 18:00:00 20.7 34 Sudeste 50 Sur 0 -- -- 82
2019-05-27 17:00:00 20.8 39 Sur 47 Sur 0 -- -- 78
2019-05-27 16:00:00 20.7 32 Sudeste 39 Sur 0 -- -- 77
2019-05-27 15:00:00 20.5 32 Sudeste 38 Sudeste 0 -- -- 77
2019-05-27 14:00:00 20.2 28 Sudeste 31 Sudeste 0 -- -- 85
2019-05-27 13:00:00 19.9 21 Sudeste 28 Sudeste 0 -- -- 82
2019-05-27 12:00:00 19.7 21 Sudeste 24 Sudeste 0 -- -- 87
2019-05-27 11:00:00 20 15 Sudeste 18 Sudeste 0 -- -- 81
2019-05-27 10:00:00 21.3 2 Noroeste 10 Oeste 0 -- -- 69
2019-05-27 09:00:00 18.8 8 Oeste 17 Oeste 0 -- -- 74
2019-05-27 08:00:00 16.6 14 Oeste 17 Oeste 0 -- -- 81
2019-05-27 07:00:00 16.5 9 Oeste 17 Oeste 0 -- -- 79
2019-05-27 06:00:00 17.2 12 Oeste 16 Oeste 0 -- -- 83
2019-05-27 05:00:00 17.2 6 Oeste 9 Oeste 0 -- -- 79
2019-05-27 04:00:00 17.7 6 Oeste 10 Oeste 0 -- -- 81
2019-05-27 03:00:00 18.1 8 Noroeste 13 Oeste 0 -- -- 78
2019-05-27 02:00:00 19.1 9 Norte 18 Norte 0 -- -- 85
2019-05-27 01:00:00 19.8 13 Nordeste 18 Norte 0 -- -- 85
2019-05-27 00:00:00 20.1 9 Norte 14 Norte 0 -- -- 83
2019-05-26 23:00:00 20.3 6 Noroeste 17 Sur 0 -- -- 79
2019-05-26 22:00:00 20.7 15 Sur 31 Sur 0 -- -- 83
2019-05-26 21:00:00 20.6 26 Sudeste 35 Sudeste 0 -- -- 81
2019-05-26 20:00:00 20.7 31 Sur 40 Sudeste 0 -- -- 79
2019-05-26 19:00:00 20.3 34 Sudeste 41 Sur 0 -- -- 80
2019-05-26 18:00:00 20.3 36 Sudeste 44 Sur 0 -- -- 82
2019-05-26 17:00:00 20.1 38 Sur 44 Sur 0 -- -- 84
2019-05-26 16:00:00 20.1 33 Sudeste 40 Sudeste 0 -- -- 84
2019-05-26 15:00:00 20 33 Sudeste 39 Sudeste 0 -- -- 84
2019-05-26 14:00:00 19.8 30 Sudeste 34 Sudeste 0 -- -- 83
2019-05-26 13:00:00 19.7 28 Sudeste 32 Sudeste 0 -- -- 84
2019-05-26 12:00:00 19.9 14 Sudeste 16 Sudeste 0 -- -- 82
2019-05-26 11:00:00 19.9 12 Sudeste 13 Sudeste 0 -- -- 77
2019-05-26 10:00:00 21.1 3 Norte 6 Norte 0 -- -- 67
2019-05-26 09:00:00 18.3 5 Noroeste 9 Oeste 0 -- -- 74
2019-05-26 08:00:00 17.1 6 Oeste 18 Oeste 0 -- -- 78
2019-05-26 07:00:00 16.4 9 Oeste 18 Oeste 0 -- -- 82
2019-05-26 06:00:00 16 9 Oeste 17 Oeste 0 -- -- 82
2019-05-26 05:00:00 16.2 10 Noroeste 16 Oeste 0 -- -- 84
2019-05-26 04:00:00 16.9 10 Noroeste 17 Oeste 0 -- -- 84
2019-05-26 03:00:00 16.5 9 Oeste 13 Oeste 0 -- -- 89
2019-05-26 02:00:00 17.3 3 Oeste 8 Oeste 0 -- -- 89
2019-05-26 01:00:00 17.9 4 Sudoeste 8 Sur 0 -- -- 88
2019-05-26 00:00:00 18.5 5 Sudoeste 18 Sudeste 0 -- -- 86
2019-05-25 23:00:00 19.1 18 Sudeste 24 Sudeste 0 -- -- 87
2019-05-25 22:00:00 19.2 20 Sudeste 24 Sur 0 -- -- 91
2019-05-25 21:00:00 19.1 22 Sur 27 Sudeste 0 -- -- 87
2019-05-25 20:00:00 19.5 23 Sudeste 28 Sudeste 0 -- -- 84
2019-05-25 19:00:00 19.5 24 Sudeste 28 Sur 0 -- -- 84
2019-05-25 18:00:00 19.8 23 Sudeste 28 Sudeste 0 -- -- 83
2019-05-25 17:00:00 19.8 23 Sudeste 27 Sur 0 -- -- 80
2019-05-25 16:00:00 19.9 22 Sudeste 28 Sudeste 0 -- -- 76
2019-05-25 15:00:00 19.6 23 Sudeste 26 Sudeste 0 -- -- 74
2019-05-25 14:00:00 20 20 Sudeste 25 Este 0 -- -- 72
2019-05-25 13:00:00 20.2 23 Este 28 Este 0 -- -- 68
2019-05-25 12:00:00 20.5 19 Este 23 Este 0 -- -- 66
2019-05-25 11:00:00 20.7 10 Sudeste 14 Sudeste 0 -- -- 56
2019-05-25 10:00:00 21.4 5 Norte 16 Norte 0 -- -- 48
2019-05-25 09:00:00 18.8 10 Noroeste 17 Oeste 0 -- -- 50
2019-05-25 08:00:00 15.9 15 Noroeste 21 Noroeste 0 -- -- 58
2019-05-25 07:00:00 15.2 17 Noroeste 23 Oeste 0 -- -- 61
2019-05-25 06:00:00 15.3 14 Noroeste 18 Noroeste 0 -- -- 61
2019-05-25 05:00:00 16.1 14 Noroeste 18 Oeste 0 -- -- 58
2019-05-25 04:00:00 16.9 10 Oeste 16 Noroeste 0 -- -- 57
2019-05-25 03:00:00 17.2 10 Noroeste 15 Oeste 0 -- -- 60
2019-05-25 02:00:00 17.4 12 Noroeste 22 Noroeste 0 -- -- 61
2019-05-25 01:00:00 18 10 Norte 25 Norte 0 -- -- 57
2019-05-25 00:00:00 18.7 13 Norte 25 Noroeste 0 -- -- 56
2019-05-24 23:00:00 19 14 Norte 32 Nordeste 0 -- -- 60
2019-05-24 22:00:00 19.9 27 Norte 47 Nordeste 0 -- -- 68
2019-05-24 21:00:00 20.3 29 Nordeste 40 Nordeste 0 -- -- 82
2019-05-24 20:00:00 20.6 26 Nordeste 36 Nordeste 0 -- -- 84
2019-05-24 19:00:00 20.6 29 Nordeste 36 Nordeste 0 -- -- 87
2019-05-24 18:00:00 21.4 26 Este 33 Este 0 -- -- 86
2019-05-24 17:00:00 21 25 Este 31 Este 0 -- -- 87
2019-05-24 16:00:00 21.1 20 Este 29 Este 0 -- -- 86
2019-05-24 15:00:00 21.4 26 Este 34 Nordeste 0 -- -- 83
2019-05-24 14:00:00 22.1 18 Nordeste 23 Nordeste 0 -- -- 79
2019-05-24 13:00:00 22.1 13 Nordeste 16 Nordeste 0 -- -- 75
2019-05-24 12:00:00 20.8 7 Sudeste 13 Este 0 -- -- 75
2019-05-24 11:00:00 20.4 11 Este 13 Nordeste 0 -- -- 73
2019-05-24 10:00:00 21.6 8 Nordeste 13 Nordeste 0 -- -- 70
2019-05-24 09:00:00 20.8 5 Oeste 17 Oeste 0 -- -- 49
2019-05-24 08:00:00 17.3 11 Oeste 17 Noroeste 0 -- -- 58
2019-05-24 07:00:00 18.2 6 Oeste 12 Oeste 0 -- -- 56
2019-05-24 06:00:00 17.7 3 Noroeste 14 Oeste 0 -- -- 57
2019-05-24 05:00:00 18.3 4 Oeste 9 Oeste 0 -- -- 64
2019-05-24 04:00:00 18.6 4 Oeste 8 Noroeste 0 -- -- 66
2019-05-24 03:00:00 19 7 Oeste 10 Oeste 0 -- -- 62
2019-05-24 02:00:00 18.3 6 Oeste 10 Oeste 0 -- -- 72
2019-05-24 01:00:00 19.1 6 Oeste 9 Oeste 0 -- -- 83
2019-05-24 00:00:00 19.3 5 Oeste 7 Oeste 0 -- -- 94
2019-05-23 23:00:00 19.9 0 Calma 2 Sudeste 0 -- -- 96
2019-05-23 22:00:00 20 2 Este 8 Este 0 -- -- 95
2019-05-23 21:00:00 20.5 8 Este 14 Este 0 -- -- 93
2019-05-23 20:00:00 20.4 14 Este 20 Este 0 -- -- 92
2019-05-23 19:00:00 21.2 16 Este 21 Este 0 -- -- 88
2019-05-23 18:00:00 20.9 18 Este 22 Sudeste 0 -- -- 89
2019-05-23 17:00:00 20.8 21 Sudeste 27 Este 0 -- -- 87
2019-05-23 16:00:00 20.9 22 Sudeste 25 Sudeste 0 -- -- 88
2019-05-23 15:00:00 20.8 24 Sudeste 27 Sudeste 0 -- -- 86
2019-05-23 14:00:00 20.9 18 Sudeste 21 Sudeste 0 -- -- 83
2019-05-23 13:00:00 20.7 16 Sudeste 21 Este 0 -- -- 79
2019-05-23 12:00:00 20.9 18 Este 21 Este 0 -- -- 72
2019-05-23 11:00:00 24 13 Este 17 Este 0 -- -- 55
2019-05-23 10:00:00 22.1 7 Norte 13 Noroeste 0 -- -- 54
2019-05-23 09:00:00 19.5 10 Noroeste 20 Noroeste 0 -- -- 55
2019-05-23 08:00:00 16.8 15 Oeste 21 Oeste 0 -- -- 56
2019-05-23 07:00:00 16.3 14 Oeste 21 Oeste 0 -- -- 57
2019-05-23 06:00:00 16.2 16 Oeste 19 Oeste 0 -- -- 55
2019-05-23 05:00:00 16.9 2 Sudoeste 12 Oeste 0 -- -- 58
2019-05-23 04:00:00 17.2 5 Oeste 9 Oeste 0 -- -- 60
2019-05-23 03:00:00 17.9 6 Oeste 18 Oeste 0 -- -- 64
2019-05-23 02:00:00 17.9 13 Oeste 17 Oeste 0 -- -- 75
2019-05-23 01:00:00 18.4 5 Oeste 10 Noroeste 0 -- -- 81
2019-05-23 00:00:00 19.2 5 Oeste 10 Oeste 0 -- -- 87
2019-05-22 23:00:00 19.2 6 Oeste 9 Oeste 0 -- -- 90
2019-05-22 22:00:00 19.5 0 Calma 8 Nordeste 0 -- -- 90
2019-05-22 21:00:00 20.1 6 Este 13 Este 0 -- -- 88
2019-05-22 20:00:00 20.6 11 Este 18 Este 0 -- -- 86
2019-05-22 19:00:00 20.6 14 Este 21 Este 0 -- -- 86
2019-05-22 18:00:00 20.9 17 Sudeste 22 Sudeste 0 -- -- 87
2019-05-22 17:00:00 20.5 21 Sudeste 24 Sudeste 0 -- -- 88
2019-05-22 16:00:00 20.6 21 Sudeste 24 Sudeste 0 -- -- 88
2019-05-22 15:00:00 20 22 Sudeste 24 Sudeste 0 -- -- 88
2019-05-22 14:00:00 20.4 19 Sudeste 22 Este 0 -- -- 84
2019-05-22 13:00:00 19.8 20 Este 22 Este 0 -- -- 86
2019-05-22 12:00:00 20.9 15 Este 17 Este 0 -- -- 81
2019-05-22 11:00:00 21.8 12 Nordeste 14 Nordeste 0 -- -- 74
2019-05-22 10:00:00 20.7 5 Norte 13 Norte 0 -- -- 70
2019-05-22 09:00:00 18 9 Noroeste 13 Noroeste 0 -- -- 78
2019-05-22 08:00:00 16.4 9 Oeste 15 Oeste 0 -- -- 84
2019-05-22 07:00:00 15.9 10 Oeste 15 Oeste 0 -- -- 88
2019-05-22 06:00:00 15.9 10 Oeste 14 Oeste 0 -- -- 87
2019-05-22 05:00:00 16.5 10 Noroeste 17 Oeste 0 -- -- 88
2019-05-22 04:00:00 16.8 13 Noroeste 15 Oeste 0 -- -- 90
2019-05-22 03:00:00 17.5 11 Oeste 14 Oeste 0 -- -- 89
2019-05-22 02:00:00 17.9 7 Noroeste 10 Noroeste 0 -- -- 89
2019-05-22 01:00:00 18.4 4 Noroeste 6 Noroeste 0 -- -- 88
2019-05-22 00:00:00 19 0 Calma 6 Oeste 0 -- -- 86
2019-05-21 23:00:00 19.3 2 Norte 6 Norte 0 -- -- 86
2019-05-21 22:00:00 19.5 4 Nordeste 15 Nordeste 0 -- -- 85
2019-05-21 21:00:00 20.3 10 Nordeste 17 Nordeste 0 -- -- 84
2019-05-21 20:00:00 21.9 10 Nordeste 14 Nordeste 0 -- -- 77
2019-05-21 19:00:00 21.9 9 Nordeste 17 Nordeste 0 -- -- 76
2019-05-21 18:00:00 21.3 11 Nordeste 22 Nordeste 0 -- -- 79
2019-05-21 17:00:00 21.1 17 Este 21 Este 0 -- -- 80
2019-05-21 16:00:00 19.5 14 Este 18 Sudeste 0 -- -- 85
2019-05-21 15:00:00 19.5 16 Sudeste 19 Sudeste 0 -- -- 86
2019-05-21 14:00:00 20.4 15 Sudeste 17 Este 0 -- -- 81
2019-05-21 13:00:00 20.4 14 Este 17 Este 0 -- -- 82
2019-05-21 12:00:00 19.8 14 Este 21 Este 0 -- -- 85
2019-05-21 11:00:00 21.5 14 Nordeste 18 Nordeste 0 -- -- 80
2019-05-21 10:00:00 20.6 9 Nordeste 13 Nordeste 0 -- -- 81
2019-05-21 09:00:00 19.1 7 Noroeste 12 Norte 0 -- -- 78
2019-05-21 08:00:00 17.7 4 Noroeste 14 Oeste 0 -- -- 85
2019-05-21 07:00:00 17.2 10 Oeste 15 Oeste 0 -- -- 88
2019-05-21 06:00:00 17.2 11 Oeste 15 Oeste 0 -- -- 89
2019-05-21 05:00:00 17.3 9 Oeste 13 Oeste 0 -- -- 89
2019-05-21 04:00:00 17.9 6 Oeste 9 Sudeste 0 -- -- 89
2019-05-21 03:00:00 18.7 8 Sudeste 13 Sudeste 0 -- -- 89
2019-05-21 02:00:00 18.6 0 Calma 5 Noroeste 0 -- -- 87
2019-05-21 01:00:00 18.7 4 Noroeste 8 Oeste 0 -- -- 86
2019-05-21 00:00:00 18.6 5 Oeste 10 Oeste 0 -- -- 87